Time;durP1;ratioP1;P1;durP2;ratioP2;P2;SDS_P1;SDS_P2;PMS_P1;PMS_P2;Temp;Humidity;BMP_temperature;BMP_pressure;BME280_temperature;BME280_humidity;BME280_pressure;Samples;Min_cycle;Max_cycle;Signal;HPM_P1;HPM_P2
2021/09/05 00:00:23;;;;;;;15.00;7.20;;;15.20;99.90;;;;;;5050409;28;20586;-76
2021/09/05 00:03:09;;;;;;;10.73;7.17;;;15.20;99.90;;;;;;5051250;28;20431;-76
2021/09/05 00:05:55;;;;;;;15.27;8.13;;;15.30;99.90;;;;;;5048672;28;20476;-76
2021/09/05 00:08:44;;;;;;;10.33;7.30;;;15.30;99.90;;;;;;5051271;28;20966;-76
2021/09/05 00:11:30;;;;;;;12.00;7.20;;;15.30;99.90;;;;;;5049082;28;20786;-76
2021/09/05 00:14:16;;;;;;;13.03;8.20;;;15.40;99.90;;;;;;5049851;28;20754;-75
2021/09/05 00:17:02;;;;;;;8.47;7.37;;;15.30;99.90;;;;;;5051087;28;20429;-76
2021/09/05 00:19:47;;;;;;;8.33;6.77;;;15.40;99.90;;;;;;5049607;28;20776;-76
2021/09/05 00:22:33;;;;;;;9.77;7.83;;;15.30;99.90;;;;;;5050532;28;20410;-76
2021/09/05 00:25:19;;;;;;;7.83;7.00;;;15.30;99.90;;;;;;5049000;28;20468;-76
2021/09/05 00:28:06;;;;;;;10.20;7.43;;;15.30;99.90;;;;;;5052757;28;20415;-75
2021/09/05 00:30:52;;;;;;;14.50;7.07;;;15.40;99.90;;;;;;5054553;28;20444;-75
2021/09/05 00:33:38;;;;;;;10.37;7.70;;;15.30;99.90;;;;;;5052918;28;20427;-76
2021/09/05 00:36:23;;;;;;;8.77;7.87;;;15.20;99.90;;;;;;5051791;28;20524;-76
2021/09/05 00:39:09;;;;;;;8.00;7.20;;;15.20;99.90;;;;;;5053675;28;20476;-76
2021/09/05 00:41:54;;;;;;;11.50;7.27;;;15.00;99.90;;;;;;5053720;28;20522;-76
2021/09/05 00:44:41;;;;;;;9.40;7.40;;;15.00;99.90;;;;;;5054227;28;20426;-76
2021/09/05 00:47:27;;;;;;;9.30;7.80;;;15.00;99.90;;;;;;5053349;28;20944;-76
2021/09/05 00:50:13;;;;;;;10.30;7.50;;;15.00;99.90;;;;;;5057398;28;20422;-75
2021/09/05 00:52:59;;;;;;;13.63;7.70;;;15.10;99.90;;;;;;5053176;28;20406;-76
2021/09/05 00:55:45;;;;;;;8.23;7.17;;;15.20;99.90;;;;;;5054024;28;21004;-76
2021/09/05 00:58:30;;;;;;;11.33;8.43;;;15.20;99.90;;;;;;5052161;28;20442;-76
2021/09/05 01:01:17;;;;;;;12.17;8.33;;;15.10;99.90;;;;;;5052090;28;20494;-76
2021/09/05 01:04:03;;;;;;;10.50;8.10;;;15.10;99.90;;;;;;5055895;28;20418;-76
2021/09/05 01:06:49;;;;;;;12.17;7.57;;;15.20;99.90;;;;;;5053047;28;20944;-76
2021/09/05 01:09:36;;;;;;;8.10;7.23;;;15.10;99.90;;;;;;5052654;28;20512;-76
2021/09/05 01:12:22;;;;;;;9.17;7.40;;;14.90;99.90;;;;;;5053171;28;20448;-75
2021/09/05 01:15:09;;;;;;;9.10;7.53;;;14.90;99.90;;;;;;5052339;28;20500;-76
2021/09/05 01:17:56;;;;;;;11.43;7.77;;;14.80;99.90;;;;;;5048892;28;20443;-76
2021/09/05 01:20:42;;;;;;;13.00;8.20;;;14.90;99.90;;;;;;5061667;28;20452;-76
2021/09/05 01:23:27;;;;;;;8.50;7.50;;;14.90;99.90;;;;;;5051391;28;20430;-76
2021/09/05 01:26:13;;;;;;;8.73;7.57;;;14.80;99.90;;;;;;5053043;28;20440;-76
2021/09/05 01:29:01;;;;;;;10.73;7.80;;;15.00;99.90;;;;;;5053956;28;20379;-76
2021/09/05 01:31:50;;;;;;;10.33;7.33;;;15.00;99.90;;;;;;5052047;28;20899;-76
2021/09/05 01:34:35;;;;;;;9.17;7.57;;;15.00;99.90;;;;;;5051692;28;20492;-76
2021/09/05 01:37:21;;;;;;;9.20;7.03;;;15.00;99.90;;;;;;5048942;28;20546;-76
2021/09/05 01:40:07;;;;;;;8.33;7.33;;;15.00;99.90;;;;;;5050311;28;20398;-76
2021/09/05 01:42:53;;;;;;;8.40;6.90;;;15.10;99.90;;;;;;5052531;28;20538;-76
2021/09/05 01:45:40;;;;;;;8.80;7.00;;;14.90;99.90;;;;;;5052662;28;20422;-75
2021/09/05 01:48:25;;;;;;;10.80;7.90;;;14.90;99.90;;;;;;5046810;28;20571;-76
2021/09/05 01:51:11;;;;;;;9.20;7.27;;;14.80;99.90;;;;;;5046024;28;21028;-76
2021/09/05 01:53:57;;;;;;;10.40;7.67;;;14.80;99.90;;;;;;5050813;28;20436;-76
2021/09/05 01:56:43;;;;;;;8.90;7.17;;;14.70;99.90;;;;;;5050989;28;20792;-76
2021/09/05 01:59:29;;;;;;;9.90;6.63;;;14.70;99.90;;;;;;5052805;28;20439;-76
2021/09/05 02:02:16;;;;;;;9.70;7.80;;;14.60;99.90;;;;;;5050830;28;20817;-76
2021/09/05 02:05:01;;;;;;;11.33;7.70;;;14.70;99.90;;;;;;5052308;28;20525;-76
2021/09/05 02:07:47;;;;;;;10.70;7.80;;;14.70;99.90;;;;;;5051764;28;20495;-76
2021/09/05 02:10:33;;;;;;;7.80;7.00;;;14.60;99.90;;;;;;5047474;28;20430;-76
2021/09/05 02:13:18;;;;;;;10.00;8.20;;;14.70;99.90;;;;;;5051594;28;20821;-76
2021/09/05 02:16:04;;;;;;;13.13;8.17;;;14.70;99.90;;;;;;5051778;28;20549;-76
2021/09/05 02:18:52;;;;;;;8.73;7.60;;;14.80;99.90;;;;;;5046983;28;20517;-76
2021/09/05 02:21:37;;;;;;;16.13;7.50;;;14.80;99.90;;;;;;5050186;28;20444;-75
2021/09/05 02:24:23;;;;;;;10.23;7.00;;;14.80;99.90;;;;;;5049202;28;20440;-76
2021/09/05 02:27:09;;;;;;;10.70;7.97;;;14.60;99.90;;;;;;5051412;28;20977;-76
2021/09/05 02:29:54;;;;;;;12.00;7.77;;;14.60;99.90;;;;;;5050108;28;20448;-75
2021/09/05 02:32:40;;;;;;;10.43;7.33;;;14.60;99.90;;;;;;5054282;28;20561;-76
2021/09/05 02:35:27;;;;;;;9.20;7.30;;;14.70;99.90;;;;;;5055877;28;20472;-76
2021/09/05 02:38:13;;;;;;;8.23;6.77;;;14.70;99.90;;;;;;5046271;28;20407;-76
2021/09/05 02:40:59;;;;;;;13.73;8.27;;;14.60;99.90;;;;;;5048127;28;20485;-76
2021/09/05 02:43:44;;;;;;;10.27;7.40;;;14.70;99.90;;;;;;5052296;28;20562;-76
2021/09/05 02:46:30;;;;;;;9.50;8.00;;;14.60;99.90;;;;;;5046156;28;20481;-75
2021/09/05 02:49:16;;;;;;;11.97;7.73;;;14.60;99.90;;;;;;5056007;28;20469;-76
2021/09/05 02:52:04;;;;;;;19.00;7.97;;;14.50;99.90;;;;;;5044960;28;20391;-76
2021/09/05 02:54:50;;;;;;;9.27;7.63;;;14.50;99.90;;;;;;5061770;22;20475;-71
2021/09/05 02:57:36;;;;;;;14.87;8.03;;;14.50;99.90;;;;;;5048189;28;20415;-70
2021/09/05 03:00:22;;;;;;;10.70;7.60;;;14.60;99.90;;;;;;5040519;28;20445;-70
2021/09/05 03:03:07;;;;;;;14.20;7.77;;;14.80;99.90;;;;;;5039853;28;20477;-71
2021/09/05 03:05:53;;;;;;;10.40;8.50;;;14.90;99.90;;;;;;5042090;28;20426;-71
2021/09/05 03:08:40;;;;;;;8.00;7.10;;;14.90;99.90;;;;;;5039905;28;20427;-73
2021/09/05 03:11:26;;;;;;;10.83;7.00;;;15.00;99.90;;;;;;5040064;28;20428;-71
2021/09/05 03:14:11;;;;;;;9.30;7.57;;;15.00;99.90;;;;;;5033411;28;20769;-71
2021/09/05 03:16:56;;;;;;;13.40;8.17;;;15.00;99.90;;;;;;5046998;28;20447;-71
2021/09/05 03:19:42;;;;;;;11.30;8.00;;;15.00;99.90;;;;;;5037961;28;20447;-70
2021/09/05 03:22:28;;;;;;;11.93;8.10;;;14.90;99.90;;;;;;5034753;28;20482;-70
2021/09/05 03:25:15;;;;;;;15.23;8.20;;;14.80;99.90;;;;;;5039341;28;20487;-71
2021/09/05 03:28:01;;;;;;;10.70;8.27;;;14.80;99.90;;;;;;5036576;28;20437;-70
2021/09/05 03:30:46;;;;;;;11.73;8.83;;;14.80;99.90;;;;;;5044758;28;20449;-70
2021/09/05 03:33:32;;;;;;;11.93;8.23;;;14.70;99.90;;;;;;5048335;28;20506;-71
2021/09/05 03:36:18;;;;;;;11.20;8.70;;;14.70;99.90;;;;;;5029122;28;20451;-71
2021/09/05 03:39:03;;;;;;;10.97;8.70;;;14.70;99.90;;;;;;5028718;28;20513;-71
2021/09/05 03:41:50;;;;;;;12.27;9.73;;;14.70;99.90;;;;;;5041287;28;20931;-71
2021/09/05 03:44:36;;;;;;;12.30;8.90;;;14.70;99.90;;;;;;5035490;28;20416;-71
2021/09/05 03:47:23;;;;;;;12.47;8.70;;;14.70;99.90;;;;;;5038740;28;20511;-70
2021/09/05 03:50:10;;;;;;;12.57;8.87;;;14.70;99.90;;;;;;5028122;28;20445;-70
2021/09/05 03:52:55;;;;;;;14.93;8.30;;;14.80;99.90;;;;;;5041221;28;20836;-70
2021/09/05 03:55:41;;;;;;;14.23;8.90;;;14.80;99.90;;;;;;5038757;28;20484;-70
2021/09/05 03:58:28;;;;;;;12.30;9.87;;;14.90;99.90;;;;;;5037660;28;20415;-70
2021/09/05 04:01:14;;;;;;;12.60;10.23;;;14.90;99.90;;;;;;5031692;28;20429;-73
2021/09/05 04:04:00;;;;;;;13.97;9.17;;;14.80;99.90;;;;;;5033803;28;20809;-70
2021/09/05 04:06:49;;;;;;;10.67;8.40;;;14.90;99.90;;;;;;5041716;28;20514;-70
2021/09/05 04:12:41;;;;;;;11.97;9.90;;;14.90;99.90;;;;;;5042409;28;20434;-71
2021/09/05 04:15:28;;;;;;;13.43;9.07;;;14.90;99.90;;;;;;5040962;28;20446;-70
2021/09/05 04:18:14;;;;;;;14.57;10.07;;;14.90;99.90;;;;;;5041203;28;21180;-70
2021/09/05 04:21:00;;;;;;;12.77;10.23;;;14.90;99.90;;;;;;5032082;28;20474;-70
2021/09/05 04:23:45;;;;;;;11.20;8.60;;;15.00;99.90;;;;;;5043681;28;20426;-71
2021/09/05 04:26:31;;;;;;;12.20;9.70;;;15.00;99.90;;;;;;5049749;28;20438;-71
2021/09/05 04:29:17;;;;;;;11.60;10.23;;;15.10;99.90;;;;;;5016617;28;20422;-74
2021/09/05 04:32:05;;;;;;;13.57;9.10;;;15.20;99.90;;;;;;5033833;28;20495;-70
2021/09/05 04:34:51;;;;;;;14.53;10.17;;;15.20;99.90;;;;;;5044021;28;20423;-70
2021/09/05 04:37:37;;;;;;;11.13;9.30;;;15.40;99.90;;;;;;5043227;28;20459;-71
2021/09/05 04:40:22;;;;;;;12.30;10.00;;;15.40;99.90;;;;;;5038327;28;20476;-70
2021/09/05 04:43:08;;;;;;;10.70;8.80;;;15.40;99.90;;;;;;5034229;28;20423;-71
2021/09/05 04:45:53;;;;;;;13.20;8.77;;;15.30;99.90;;;;;;5046342;28;20468;-73
2021/09/05 04:48:41;;;;;;;12.67;9.60;;;15.30;99.90;;;;;;5046471;28;21001;-70
2021/09/05 04:51:27;;;;;;;17.10;9.33;;;15.30;99.90;;;;;;5033124;28;20554;-70
2021/09/05 04:54:12;;;;;;;11.07;8.23;;;15.30;99.90;;;;;;5036182;28;20596;-70
2021/09/05 04:56:58;;;;;;;11.07;8.90;;;15.30;99.90;;;;;;5042802;28;20455;-74
2021/09/05 04:59:43;;;;;;;12.53;9.40;;;15.40;99.90;;;;;;5047064;28;20446;-70
2021/09/05 05:02:30;;;;;;;10.53;8.93;;;15.40;99.90;;;;;;5042013;28;20403;-71
2021/09/05 05:05:18;;;;;;;17.30;9.20;;;15.40;99.90;;;;;;5022594;28;20453;-70
2021/09/05 05:08:04;;;;;;;11.33;9.43;;;15.40;99.90;;;;;;5047381;28;20772;-70
2021/09/05 05:10:50;;;;;;;15.53;8.07;;;15.30;99.90;;;;;;5038842;28;20489;-70
2021/09/05 05:13:35;;;;;;;11.77;8.97;;;15.30;99.90;;;;;;5040870;28;20430;-70
2021/09/05 05:16:22;;;;;;;14.23;9.50;;;15.20;99.90;;;;;;5036987;28;20464;-70
2021/09/05 05:19:07;;;;;;;13.37;8.87;;;15.20;99.90;;;;;;5042576;28;20461;-70
2021/09/05 05:21:55;;;;;;;9.70;8.10;;;15.10;99.90;;;;;;5050168;28;20511;-71
2021/09/05 05:24:40;;;;;;;13.30;8.80;;;15.10;99.90;;;;;;5036530;28;20426;-70
2021/09/05 05:27:26;;;;;;;16.63;8.50;;;15.10;99.90;;;;;;5038979;28;20420;-70
2021/09/05 05:30:12;;;;;;;12.93;9.50;;;15.20;99.90;;;;;;5037659;28;20399;-70
2021/09/05 05:32:58;;;;;;;11.00;8.90;;;15.20;99.90;;;;;;5040373;28;20443;-70
2021/09/05 05:35:44;;;;;;;19.70;10.70;;;15.30;99.90;;;;;;5039385;28;20484;-70
2021/09/05 05:38:31;;;;;;;12.83;9.20;;;15.30;99.90;;;;;;5048969;28;20443;-70
2021/09/05 05:41:19;;;;;;;13.83;9.63;;;15.30;99.90;;;;;;5031800;28;20824;-70
2021/09/05 05:44:05;;;;;;;14.00;10.57;;;15.20;99.90;;;;;;5035869;28;20460;-71
2021/09/05 05:46:51;;;;;;;11.23;9.90;;;15.20;99.90;;;;;;5039713;28;20472;-71
2021/09/05 05:49:38;;;;;;;14.43;10.17;;;15.50;99.90;;;;;;5039838;28;20403;-70
2021/09/05 05:52:24;;;;;;;15.00;10.90;;;15.60;99.90;;;;;;5038761;28;20423;-70
2021/09/05 05:55:12;;;;;;;12.20;10.70;;;15.70;99.90;;;;;;5034564;28;20827;-73
2021/09/05 05:57:58;;;;;;;14.20;10.10;;;15.80;99.90;;;;;;5029165;28;20514;-71
2021/09/05 06:00:44;;;;;;;14.30;11.07;;;15.90;99.90;;;;;;5042300;28;20587;-71
2021/09/05 06:03:29;;;;;;;20.00;11.20;;;16.10;99.90;;;;;;5046529;28;20803;-70
2021/09/05 06:06:15;;;;;;;14.00;10.37;;;16.30;99.90;;;;;;5024029;28;20507;-70
2021/09/05 06:09:01;;;;;;;12.33;10.83;;;16.30;99.90;;;;;;5036901;28;20424;-70
2021/09/05 06:11:47;;;;;;;16.90;11.03;;;16.40;99.90;;;;;;5042989;28;20424;-71
2021/09/05 06:14:33;;;;;;;12.40;10.53;;;16.50;99.90;;;;;;5032393;28;20450;-70
2021/09/05 06:17:19;;;;;;;13.87;10.90;;;16.50;99.90;;;;;;5045210;28;20861;-71
2021/09/05 06:20:06;;;;;;;19.20;11.17;;;16.60;99.90;;;;;;5033659;28;20938;-71
2021/09/05 06:22:52;;;;;;;17.83;11.27;;;16.70;99.90;;;;;;5022995;28;20442;-70
2021/09/05 06:25:37;;;;;;;17.17;12.10;;;16.90;99.90;;;;;;5040556;28;20425;-70
2021/09/05 06:28:24;;;;;;;15.60;11.30;;;16.90;99.90;;;;;;5032509;28;20495;-70
2021/09/05 06:31:10;;;;;;;13.77;11.43;;;17.00;99.90;;;;;;5038187;28;20439;-70
2021/09/05 06:33:56;;;;;;;17.93;11.90;;;17.20;99.90;;;;;;5034218;28;20550;-70
2021/09/05 06:36:42;;;;;;;15.57;11.30;;;17.30;99.90;;;;;;5030389;28;20486;-70
2021/09/05 06:39:27;;;;;;;16.87;12.20;;;17.40;99.90;;;;;;5029535;28;20470;-71
2021/09/05 06:42:13;;;;;;;17.70;11.80;;;17.40;99.90;;;;;;5028845;28;20449;-73
2021/09/05 06:45:00;;;;;;;12.37;10.90;;;17.40;99.90;;;;;;5038600;28;20468;-71
2021/09/05 06:47:45;;;;;;;13.50;11.83;;;17.50;99.90;;;;;;5040433;28;20424;-70
2021/09/05 06:50:31;;;;;;;18.07;12.90;;;17.50;99.90;;;;;;5038529;28;20412;-74
2021/09/05 06:53:17;;;;;;;16.00;11.53;;;17.30;99.90;;;;;;5037401;28;20449;-70
2021/09/05 06:56:02;;;;;;;15.97;12.47;;;17.50;99.90;;;;;;5024970;28;20538;-71
2021/09/05 06:58:48;;;;;;;18.27;12.60;;;17.50;99.90;;;;;;5040208;28;20400;-70
2021/09/05 07:01:35;;;;;;;15.80;11.83;;;17.60;99.90;;;;;;5036742;28;20843;-72
2021/09/05 07:04:21;;;;;;;18.00;11.93;;;17.80;99.90;;;;;;5035243;28;20425;-71
2021/09/05 07:07:06;;;;;;;18.27;13.47;;;17.90;99.90;;;;;;5044817;28;20408;-71
2021/09/05 07:09:52;;;;;;;14.67;11.57;;;18.00;99.90;;;;;;5036285;28;20431;-71
2021/09/05 07:12:37;;;;;;;16.97;12.27;;;18.10;99.90;;;;;;5034309;28;20786;-73
2021/09/05 07:15:23;;;;;;;20.80;13.93;;;18.00;99.90;;;;;;5038712;28;20535;-70
2021/09/05 07:18:10;;;;;;;15.73;13.10;;;18.10;99.90;;;;;;5033326;28;20516;-71
2021/09/05 07:20:56;;;;;;;16.80;12.00;;;18.30;99.90;;;;;;5034079;28;20446;-71
2021/09/05 07:23:41;;;;;;;20.37;12.60;;;18.50;99.90;;;;;;5034677;28;20810;-70
2021/09/05 07:26:27;;;;;;;16.07;11.40;;;18.60;99.90;;;;;;5045098;28;20846;-71
2021/09/05 07:29:13;;;;;;;14.43;12.10;;;18.60;99.90;;;;;;5041430;28;20432;-71
2021/09/05 07:31:58;;;;;;;17.60;12.73;;;18.80;99.90;;;;;;5025740;28;20555;-70
2021/09/05 07:34:46;;;;;;;19.77;12.73;;;18.90;99.90;;;;;;5042570;28;20438;-70
2021/09/05 07:37:32;;;;;;;18.43;12.50;;;19.00;99.90;;;;;;5042465;28;20426;-70
2021/09/05 07:40:18;;;;;;;17.07;12.27;;;19.10;99.90;;;;;;5030211;28;20974;-70
2021/09/05 07:43:04;;;;;;;17.73;11.87;;;19.20;99.90;;;;;;5039606;28;20426;-73
2021/09/05 07:45:50;;;;;;;13.53;11.53;;;19.30;99.90;;;;;;5032536;28;20448;-70
2021/09/05 07:48:36;;;;;;;17.50;11.93;;;19.30;99.90;;;;;;5036660;28;20521;-70
2021/09/05 07:51:24;;;;;;;13.83;10.73;;;19.40;99.90;;;;;;5039607;28;20419;-70
2021/09/05 07:54:10;;;;;;;14.40;11.40;;;19.50;99.90;;;;;;5019240;28;20445;-70
2021/09/05 07:56:55;;;;;;;15.83;11.60;;;19.60;99.90;;;;;;5039691;28;20981;-71
2021/09/05 07:59:41;;;;;;;20.50;13.43;;;19.70;99.90;;;;;;5038336;28;20937;-72
2021/09/05 08:02:26;;;;;;;17.03;11.27;;;19.80;99.90;;;;;;5035356;28;20758;-70
2021/09/05 08:05:13;;;;;;;17.47;12.10;;;20.00;99.90;;;;;;5030239;28;20448;-70
2021/09/05 08:08:00;;;;;;;21.10;12.43;;;20.00;99.90;;;;;;5027000;28;20458;-70
2021/09/05 08:10:45;;;;;;;13.23;10.77;;;20.10;99.90;;;;;;5030773;28;20442;-74
2021/09/05 08:13:31;;;;;;;13.20;11.43;;;20.20;99.90;;;;;;5033304;28;20486;-70
2021/09/05 08:16:17;;;;;;;15.07;10.83;;;20.30;99.90;;;;;;5038983;28;20454;-70
2021/09/05 08:19:03;;;;;;;13.97;10.53;;;20.40;99.90;;;;;;5035798;28;20417;-70
2021/09/05 08:21:48;;;;;;;13.27;10.93;;;20.50;99.90;;;;;;5031759;28;20464;-71
2021/09/05 08:24:36;;;;;;;14.30;10.77;;;20.50;99.90;;;;;;5034994;28;20471;-71
2021/09/05 08:27:21;;;;;;;15.07;10.63;;;20.60;99.90;;;;;;5034640;28;20422;-70
2021/09/05 08:30:08;;;;;;;13.47;11.43;;;20.80;99.90;;;;;;5025180;28;20421;-70
2021/09/05 08:32:54;;;;;;;11.33;8.73;;;20.90;99.90;;;;;;5046224;28;20446;-70
2021/09/05 08:35:39;;;;;;;11.30;10.10;;;21.00;99.90;;;;;;5035246;28;20458;-70
2021/09/05 08:38:25;;;;;;;13.90;10.03;;;21.10;99.90;;;;;;5034228;28;20856;-71
2021/09/05 08:41:12;;;;;;;16.70;11.40;;;21.20;99.90;;;;;;5038860;28;20447;-72
2021/09/05 08:43:59;;;;;;;16.73;10.00;;;21.30;99.90;;;;;;5027025;28;20445;-71
2021/09/05 08:46:44;;;;;;;14.97;9.40;;;21.40;99.90;;;;;;5030788;28;20575;-74
2021/09/05 08:49:35;;;;;;;17.60;10.63;;;21.50;99.90;;;;;;5035894;28;20458;-75
2021/09/05 08:52:21;;;;;;;13.13;10.53;;;21.60;99.90;;;;;;5043169;28;20605;-74
2021/09/05 08:55:08;;;;;;;15.23;10.57;;;21.70;99.90;;;;;;5053000;22;20468;-74
2021/09/05 08:57:56;;;;;;;19.00;10.87;;;21.80;99.90;;;;;;5011658;28;20435;-74
2021/09/05 09:00:42;;;;;;;10.93;9.47;;;21.90;99.90;;;;;;5009514;28;20480;-74
2021/09/05 09:03:28;;;;;;;12.57;9.50;;;22.00;99.90;;;;;;5006742;28;22282;-74
2021/09/05 09:06:19;;;;;;;12.90;10.03;;;22.10;99.90;;;;;;4998561;28;20461;-74
2021/09/05 09:09:05;;;;;;;12.00;9.73;;;22.10;99.90;;;;;;4992383;28;20444;-74
2021/09/05 09:11:56;;;;;;;17.23;10.70;;;22.20;99.90;;;;;;4992218;28;20448;-74
2021/09/05 09:14:45;;;;;;;13.73;9.93;;;22.20;99.90;;;;;;4990879;28;20533;-74
2021/09/05 09:17:38;;;;;;;14.97;10.17;;;22.40;99.90;;;;;;4993857;28;20468;-75
2021/09/05 09:20:44;;;;;;;13.93;8.87;;;22.40;99.90;;;;;;4990751;28;20480;-74
2021/09/05 09:23:32;;;;;;;14.43;8.43;;;22.50;99.90;;;;;;4994840;28;20461;-74
2021/09/05 09:26:18;;;;;;;11.53;9.00;;;22.50;99.90;;;;;;4990928;28;20525;-74
2021/09/05 09:29:14;;;;;;;11.13;9.60;;;22.60;99.90;;;;;;4996153;28;20415;-75
2021/09/05 09:32:05;;;;;;;12.40;10.30;;;22.70;99.90;;;;;;4995941;28;20399;-74
2021/09/05 09:34:53;;;;;;;11.70;10.00;;;22.70;99.90;;;;;;4994455;28;20426;-74
2021/09/05 09:37:38;;;;;;;13.00;8.90;;;22.80;99.90;;;;;;4998917;28;20420;-74
2021/09/05 09:40:26;;;;;;;10.27;8.40;;;22.80;99.90;;;;;;4995264;28;20471;-75
2021/09/05 09:43:20;;;;;;;10.63;9.50;;;23.00;99.90;;;;;;4995563;28;20481;-74
2021/09/05 09:46:13;;;;;;;14.80;9.00;;;23.10;99.90;;;;;;4987461;28;20445;-74
2021/09/05 09:49:02;;;;;;;13.83;9.10;;;23.10;99.90;;;;;;5003250;28;20410;-75
2021/09/05 09:51:48;;;;;;;12.20;9.50;;;23.30;99.90;;;;;;5008695;28;20458;-75
2021/09/05 09:54:36;;;;;;;10.37;8.87;;;23.40;99.90;;;;;;4990483;28;20582;-74
2021/09/05 09:57:22;;;;;;;17.00;9.43;;;23.50;99.90;;;;;;4994380;28;20458;-75
2021/09/05 10:00:09;;;;;;;12.70;9.70;;;23.70;99.90;;;;;;4993044;28;20884;-74
2021/09/05 10:02:56;;;;;;;10.80;8.87;;;23.60;99.90;;;;;;4995259;28;20478;-75
2021/09/05 10:05:44;;;;;;;11.57;8.40;;;23.70;99.90;;;;;;4998127;28;20875;-75
2021/09/05 10:08:32;;;;;;;10.90;8.63;;;23.80;99.90;;;;;;4996989;28;20407;-74
2021/09/05 10:11:20;;;;;;;11.37;9.17;;;23.80;99.90;;;;;;5015298;28;20421;-75
2021/09/05 10:14:06;;;;;;;10.00;8.47;;;23.90;99.90;;;;;;5009888;28;20457;-74
2021/09/05 10:16:52;;;;;;;9.13;8.20;;;23.90;98.50;;;;;;4994186;28;20529;-75
2021/09/05 10:19:39;;;;;;;10.43;8.90;;;24.10;99.90;;;;;;5003057;28;20460;-75
2021/09/05 10:22:30;;;;;;;10.70;8.70;;;24.30;99.90;;;;;;5015263;28;20473;-75
2021/09/05 10:25:17;;;;;;;13.07;9.80;;;24.40;99.90;;;;;;4995636;28;20441;-74
2021/09/05 10:28:05;;;;;;;11.17;8.90;;;24.50;99.90;;;;;;4994930;28;20942;-75
2021/09/05 10:30:59;;;;;;;12.30;9.83;;;24.70;97.40;;;;;;4993167;28;20439;-75
2021/09/05 10:33:45;;;;;;;12.27;9.67;;;24.80;97.00;;;;;;4994645;28;20847;-75
2021/09/05 10:36:42;;;;;;;11.00;8.53;;;24.90;97.00;;;;;;4991670;28;20481;-74
2021/09/05 10:39:29;;;;;;;9.27;8.07;;;25.00;90.60;;;;;;4993604;28;20455;-75
2021/09/05 10:42:24;;;;;;;11.40;8.60;;;25.00;92.00;;;;;;4989523;28;20476;-75
2021/09/05 10:45:13;;;;;;;9.50;8.30;;;25.10;88.90;;;;;;4991921;28;22176;-74
2021/09/05 10:47:58;;;;;;;10.67;8.23;;;25.30;85.90;;;;;;4998163;28;20491;-74
2021/09/05 10:50:51;;;;;;;8.13;6.80;;;25.40;84.70;;;;;;4995103;28;20473;-75
2021/09/05 10:53:38;;;;;;;10.83;7.93;;;25.50;75.40;;;;;;4992734;28;20447;-75
2021/09/05 10:56:26;;;;;;;9.10;7.00;;;25.60;70.30;;;;;;4993999;28;20459;-74
2021/09/05 10:59:12;;;;;;;10.97;7.23;;;25.80;70.70;;;;;;4993723;28;20455;-75
2021/09/05 11:02:00;;;;;;;8.43;7.17;;;25.80;68.00;;;;;;4994133;28;20474;-74
2021/09/05 11:04:46;;;;;;;19.27;8.53;;;25.90;67.10;;;;;;4994747;28;20460;-74
2021/09/05 11:07:33;;;;;;;14.50;8.40;;;26.10;68.50;;;;;;4999396;28;20462;-74
2021/09/05 11:10:48;;;;;;;7.93;6.70;;;26.10;68.50;;;;;;4990789;28;20515;-74
2021/09/05 11:13:53;;;;;;;10.43;7.13;;;26.10;63.40;;;;;;4995357;28;20450;-74
2021/09/05 11:16:40;;;;;;;8.17;7.00;;;26.10;62.00;;;;;;4995690;28;20471;-75
2021/09/05 11:19:25;;;;;;;9.60;7.27;;;25.90;61.70;;;;;;4994050;28;20494;-74
2021/09/05 11:22:12;;;;;;;9.30;6.77;;;26.00;69.60;;;;;;4992965;28;20842;-74
2021/09/05 11:25:23;;;;;;;8.67;6.87;;;26.10;64.70;;;;;;4991705;28;20539;-74
2021/09/05 11:28:10;;;;;;;7.33;6.50;;;26.30;64.70;;;;;;4988369;28;21104;-75
2021/09/05 11:31:00;;;;;;;9.43;8.20;;;26.20;63.20;;;;;;4996668;28;20450;-74
2021/09/05 11:33:47;;;;;;;10.77;7.93;;;26.10;64.00;;;;;;4994630;28;20451;-74
2021/09/05 11:36:32;;;;;;;9.50;8.43;;;25.90;65.40;;;;;;4998036;28;20451;-74
2021/09/05 11:39:18;;;;;;;10.50;8.40;;;25.80;67.20;;;;;;4999141;28;20405;-74
2021/09/05 11:42:04;;;;;;;11.33;9.17;;;25.70;71.40;;;;;;4992050;28;20453;-74
2021/09/05 11:44:50;;;;;;;15.73;8.80;;;25.60;69.90;;;;;;4990757;28;20459;-74
2021/09/05 11:47:39;;;;;;;10.20;9.10;;;25.40;70.60;;;;;;4988464;28;20552;-74
2021/09/05 11:50:25;;;;;;;13.47;8.70;;;25.30;74.40;;;;;;4985508;28;20529;-74
2021/09/05 11:53:19;;;;;;;11.27;9.60;;;25.10;77.60;;;;;;4986689;28;20966;-74
2021/09/05 11:56:05;;;;;;;11.37;8.83;;;25.40;73.60;;;;;;4987750;28;20480;-74
2021/09/05 11:58:51;;;;;;;8.10;6.97;;;25.50;71.70;;;;;;4988675;28;20461;-74
2021/09/05 12:01:37;;;;;;;12.07;8.50;;;25.70;70.20;;;;;;4985532;28;20712;-74
2021/09/05 12:04:24;;;;;;;13.17;8.00;;;25.80;69.10;;;;;;4989761;28;20447;-75
2021/09/05 12:07:13;;;;;;;11.83;8.07;;;26.00;66.00;;;;;;4989878;28;20530;-74
2021/09/05 12:10:10;;;;;;;10.70;8.50;;;26.00;63.70;;;;;;4988697;28;20489;-74
2021/09/05 12:13:02;;;;;;;10.87;6.60;;;26.10;63.70;;;;;;4991105;28;20554;-74
2021/09/05 12:15:49;;;;;;;15.47;6.77;;;26.40;62.60;;;;;;4992275;28;20468;-74
2021/09/05 12:18:35;;;;;;;10.93;7.10;;;26.80;60.00;;;;;;4992987;28;20422;-75
2021/09/05 12:21:30;;;;;;;7.37;6.20;;;27.00;55.20;;;;;;4992183;28;20837;-75
2021/09/05 12:24:18;;;;;;;9.10;7.43;;;27.40;52.20;;;;;;4995004;28;20531;-74
2021/09/05 12:27:08;;;;;;;8.90;7.23;;;27.60;55.00;;;;;;4996911;28;20785;-76
2021/09/05 12:29:54;;;;;;;12.93;7.33;;;27.80;53.80;;;;;;4977390;28;20792;-74
2021/09/05 12:32:40;;;;;;;9.57;7.57;;;28.00;51.60;;;;;;4991785;28;20456;-74
2021/09/05 12:35:28;;;;;;;13.10;7.00;;;28.20;54.50;;;;;;4993802;28;20480;-74
2021/09/05 12:38:17;;;;;;;10.03;7.40;;;28.40;48.70;;;;;;4993893;28;20458;-73
2021/09/05 12:41:06;;;;;;;11.13;8.13;;;28.40;49.00;;;;;;4993211;28;20445;-74
2021/09/05 12:43:54;;;;;;;11.23;8.40;;;28.40;52.20;;;;;;4995623;28;20474;-74
2021/09/05 12:46:41;;;;;;;11.70;7.80;;;28.10;53.20;;;;;;4989463;28;20480;-73
2021/09/05 12:49:27;;;;;;;9.67;8.30;;;28.10;50.00;;;;;;4998476;28;20822;-74
2021/09/05 12:52:24;;;;;;;11.17;8.23;;;28.10;52.00;;;;;;4997644;28;20466;-74
2021/09/05 12:55:11;;;;;;;8.97;8.07;;;28.30;51.30;;;;;;4988779;28;20438;-74
2021/09/05 12:57:57;;;;;;;9.83;8.83;;;28.50;50.90;;;;;;4993967;28;20451;-74
2021/09/05 13:00:43;;;;;;;11.33;8.00;;;28.60;51.60;;;;;;4993389;28;20489;-74
2021/09/05 13:03:30;;;;;;;10.90;8.00;;;28.80;49.90;;;;;;4991690;28;20980;-74
2021/09/05 13:06:16;;;;;;;9.07;7.60;;;28.50;50.70;;;;;;4989065;28;20974;-75
2021/09/05 13:09:01;;;;;;;8.90;7.70;;;28.20;52.60;;;;;;4994111;28;20458;-74
2021/09/05 13:11:50;;;;;;;8.90;7.90;;;27.70;54.10;;;;;;4992154;28;20815;-75
2021/09/05 13:14:38;;;;;;;11.43;8.73;;;27.10;60.20;;;;;;4992288;28;20452;-74
2021/09/05 13:17:24;;;;;;;12.37;8.17;;;26.50;66.90;;;;;;4997269;28;20498;-74
2021/09/05 13:20:11;;;;;;;11.90;8.77;;;26.20;79.60;;;;;;4996731;28;20818;-75
2021/09/05 13:22:57;;;;;;;9.53;8.50;;;25.70;83.70;;;;;;4990838;28;20972;-75
2021/09/05 13:25:43;;;;;;;13.50;8.83;;;25.40;86.40;;;;;;4980175;28;21032;-76
2021/09/05 13:28:30;;;;;;;9.50;8.30;;;25.30;86.30;;;;;;4992287;28;20421;-76
2021/09/05 13:31:16;;;;;;;10.80;8.10;;;25.30;93.10;;;;;;4987118;28;20451;-76
2021/09/05 13:34:02;;;;;;;10.60;8.27;;;25.00;93.70;;;;;;4992600;28;20522;-76
2021/09/05 13:36:48;;;;;;;10.53;8.03;;;24.90;98.30;;;;;;4993690;28;20491;-76
2021/09/05 13:39:33;;;;;;;9.67;8.63;;;24.70;92.60;;;;;;4991900;28;20576;-75
2021/09/05 13:42:19;;;;;;;12.17;9.40;;;24.80;93.00;;;;;;4991657;28;20921;-76
2021/09/05 13:45:07;;;;;;;11.30;9.00;;;24.90;98.50;;;;;;4993654;28;20480;-76
2021/09/05 13:47:53;;;;;;;14.80;8.97;;;24.80;97.50;;;;;;4993437;28;20462;-76
2021/09/05 13:50:38;;;;;;;11.03;9.80;;;24.60;98.30;;;;;;4991410;28;20962;-76
2021/09/05 13:53:24;;;;;;;12.47;9.70;;;24.50;99.90;;;;;;4994404;28;20439;-76
2021/09/05 13:56:10;;;;;;;11.93;8.77;;;24.40;99.90;;;;;;4986297;28;20898;-76
2021/09/05 13:58:55;;;;;;;18.73;9.00;;;24.30;99.90;;;;;;4993729;28;20415;-76
2021/09/05 14:01:43;;;;;;;15.60;9.70;;;24.30;99.90;;;;;;4993855;28;20490;-76
2021/09/05 14:04:28;;;;;;;10.37;8.43;;;24.30;99.90;;;;;;4992929;28;20475;-76
2021/09/05 14:07:14;;;;;;;13.87;9.40;;;24.20;99.90;;;;;;4989723;28;20464;-76
2021/09/05 14:09:59;;;;;;;10.33;8.90;;;24.00;99.90;;;;;;4992374;28;20870;-76
2021/09/05 14:12:45;;;;;;;12.57;8.87;;;23.90;99.90;;;;;;4990229;28;20598;-76
2021/09/05 14:15:31;;;;;;;10.43;8.90;;;23.70;99.90;;;;;;4991308;28;20481;-76
2021/09/05 14:18:18;;;;;;;10.43;8.87;;;23.60;99.90;;;;;;4987787;28;20470;-76